createdAt,value
2019-04-04T00:00:20.027Z,73.05
2019-04-04T00:03:04.589Z,69.90
2019-04-04T00:05:49.511Z,76.40
2019-04-04T00:08:31.686Z,72.90
2019-04-04T00:11:19.394Z,75.62
2019-04-04T00:14:12.747Z,64.63
2019-04-04T00:16:54.182Z,77.13
2019-04-04T00:19:39.017Z,69.03
2019-04-04T00:22:21.208Z,71.40
2019-04-04T00:25:02.569Z,67.50
2019-04-04T00:27:44.966Z,74.50
2019-04-04T00:30:27.945Z,78.00
2019-04-04T00:33:10.130Z,75.27
2019-04-04T00:35:53.486Z,68.63
2019-04-04T00:38:36.027Z,77.60
2019-04-04T00:41:16.694Z,82.33
2019-04-04T00:44:00.209Z,82.67
2019-04-04T00:46:46.993Z,81.80
2019-04-04T00:49:26.824Z,82.13
2019-04-04T00:52:10.311Z,89.30
2019-04-04T00:54:59.572Z,84.03
2019-04-04T00:57:42.556Z,99.30
2019-04-04T01:00:29.757Z,128.03
2019-04-04T01:03:14.713Z,109.00
2019-04-04T01:05:55.355Z,96.72
2019-04-04T01:08:38.856Z,91.13
2019-04-04T01:14:12.809Z,89.50
2019-04-04T01:17:05.638Z,90.00
2019-04-04T01:19:50.875Z,91.63
2019-04-04T01:25:35.848Z,79.90
2019-04-04T01:28:23.622Z,84.00
2019-04-04T01:31:04.251Z,76.00
2019-04-04T01:33:45.835Z,75.03
2019-04-04T01:36:30.420Z,82.67
2019-04-04T01:39:14.156Z,85.57
2019-04-04T01:42:06.808Z,83.87
2019-04-04T01:44:47.417Z,107.50
2019-04-04T01:47:30.217Z,97.80
2019-04-04T01:50:10.343Z,85.47
2019-04-04T01:52:58.816Z,76.57
2019-04-04T01:55:46.879Z,74.17
2019-04-04T01:58:30.783Z,83.20
2019-04-04T02:01:22.754Z,96.65
2019-04-04T02:04:07.968Z,85.70
2019-04-04T02:06:54.614Z,92.43
2019-04-04T02:12:39.926Z,73.03
2019-04-04T02:15:32.056Z,83.17
2019-04-04T02:18:15.902Z,86.40
2019-04-04T02:20:59.437Z,75.37
2019-04-04T02:23:39.303Z,79.40
2019-04-04T02:26:23.615Z,91.42
2019-04-04T02:29:09.037Z,78.87
2019-04-04T02:32:03.877Z,75.33
2019-04-04T02:34:41.859Z,94.83
2019-04-04T02:37:22.595Z,84.60
2019-04-04T02:40:27.161Z,79.60
2019-04-04T02:43:12.567Z,75.43
2019-04-04T02:45:57.813Z,76.50
2019-04-04T02:48:40.052Z,67.57
2019-04-04T02:51:20.203Z,87.60
2019-04-04T02:54:06.999Z,147.33
2019-04-04T02:56:51.554Z,96.03
2019-04-04T02:59:34.388Z,78.70
2019-04-04T03:02:17.844Z,165.70
2019-04-04T03:04:57.728Z,82.67
2019-04-04T03:07:48.607Z,68.33
2019-04-04T03:10:31.670Z,76.27
2019-04-04T03:13:18.645Z,65.03
2019-04-04T03:16:25.366Z,67.27
2019-04-04T03:19:11.642Z,73.37
2019-04-04T03:22:14.253Z,79.17
2019-04-04T03:25:06.052Z,84.57
2019-04-04T03:27:48.100Z,170.17
2019-04-04T03:30:31.425Z,107.80
2019-04-04T03:33:13.662Z,86.40
2019-04-04T03:36:21.534Z,75.37
2019-04-04T03:42:30.302Z,85.87
2019-04-04T03:45:12.191Z,78.63
2019-04-04T03:47:54.352Z,74.60
2019-04-04T03:50:38.323Z,72.93
2019-04-04T03:53:19.362Z,84.10
2019-04-04T03:56:01.607Z,86.20
2019-04-04T03:58:49.861Z,73.53
2019-04-04T04:01:31.765Z,70.57
2019-04-04T04:04:13.550Z,105.37
2019-04-04T04:06:58.535Z,90.10
2019-04-04T04:09:40.512Z,80.87
2019-04-04T04:12:22.776Z,98.00
2019-04-04T04:15:06.486Z,94.93
2019-04-04T04:17:49.451Z,75.80
2019-04-04T04:20:37.524Z,74.57
2019-04-04T04:23:23.978Z,74.33
2019-04-04T04:26:08.606Z,76.60
2019-04-04T04:28:53.537Z,148.87
2019-04-04T04:31:36.392Z,112.30
2019-04-04T04:34:21.656Z,98.70
2019-04-04T04:37:05.994Z,105.20
2019-04-04T04:39:48.140Z,100.03
2019-04-04T04:42:32.294Z,101.33
2019-04-04T04:45:22.659Z,123.83
2019-04-04T04:48:18.623Z,342.20
2019-04-04T04:54:11.221Z,126.43
2019-04-04T04:57:04.958Z,150.80
2019-04-04T04:59:50.134Z,74.53
2019-04-04T05:02:39.485Z,79.53
2019-04-04T05:08:45.737Z,86.43
2019-04-04T05:11:41.999Z,71.83
2019-04-04T05:14:32.527Z,89.27
2019-04-04T05:17:36.682Z,63.70
2019-04-04T05:20:29.729Z,55.43
2019-04-04T05:23:11.200Z,51.37
2019-04-04T05:25:54.713Z,54.65
2019-04-04T05:28:53.018Z,46.67
2019-04-04T05:31:49.889Z,46.00
2019-04-04T05:34:34.977Z,43.43
2019-04-04T05:37:29.787Z,58.07
2019-04-04T05:40:24.247Z,50.73
2019-04-04T05:46:09.970Z,42.80
2019-04-04T05:48:53.986Z,49.23
2019-04-04T05:54:52.834Z,49.20
2019-04-04T05:57:43.628Z,53.00
2019-04-04T06:00:28.910Z,47.93
2019-04-04T06:03:16.586Z,64.00
2019-04-04T06:06:02.068Z,50.00
2019-04-04T06:08:49.255Z,51.33
2019-04-04T06:11:36.961Z,65.13
2019-04-04T06:14:29.938Z,64.13
2019-04-04T06:17:21.263Z,198.17
2019-04-04T06:20:02.558Z,79.87
2019-04-04T06:22:52.620Z,72.80
2019-04-04T06:25:37.681Z,46.73
2019-04-04T06:28:26.315Z,62.57
2019-04-04T06:31:13.989Z,68.67
2019-04-04T06:33:59.180Z,87.40
2019-04-04T06:36:50.614Z,66.00
2019-04-04T06:39:39.359Z,47.93
2019-04-04T06:42:35.698Z,51.13
2019-04-04T06:45:48.277Z,51.63
2019-04-04T06:48:33.803Z,42.77
2019-04-04T06:51:23.629Z,368.43
2019-04-04T06:54:25.018Z,75.70
2019-04-04T06:57:11.354Z,48.03
2019-04-04T06:59:55.403Z,42.80
2019-04-04T07:02:35.794Z,45.10
2019-04-04T07:08:31.165Z,56.03
2019-04-04T07:11:21.575Z,45.87
2019-04-04T07:14:04.527Z,42.93
2019-04-04T07:16:52.619Z,53.20
2019-04-04T07:19:48.111Z,44.83
2019-04-04T07:22:37.323Z,53.20
2019-04-04T07:25:25.978Z,38.37
2019-04-04T07:28:03.916Z,39.27
2019-04-04T07:30:54.479Z,38.87
2019-04-04T07:33:48.428Z,37.80
2019-04-04T07:36:34.849Z,44.43
2019-04-04T07:39:23.350Z,49.67
2019-04-04T07:42:16.228Z,47.33
2019-04-04T07:45:14.353Z,43.73
2019-04-04T07:48:05.827Z,36.10
2019-04-04T07:50:45.571Z,41.33
2019-04-04T07:56:48.009Z,40.33
2019-04-04T07:59:33.246Z,45.10
2019-04-04T08:02:14.420Z,37.03
2019-04-04T08:05:14.376Z,33.30
2019-04-04T08:08:09.093Z,37.33
2019-04-04T08:10:59.513Z,42.47
2019-04-04T08:13:39.986Z,53.17
2019-04-04T08:16:22.706Z,50.47
2019-04-04T08:22:24.827Z,46.20
2019-04-04T08:25:07.491Z,47.90
2019-04-04T08:27:50.337Z,40.77
2019-04-04T08:30:30.129Z,42.07
2019-04-04T08:33:17.334Z,44.43
2019-04-04T08:36:11.575Z,38.37
2019-04-04T08:38:56.370Z,46.17
2019-04-04T08:41:38.258Z,44.35
2019-04-04T08:44:23.627Z,46.87
2019-04-04T08:53:39.690Z,45.50
2019-04-04T08:56:12.888Z,44.17
2019-04-04T08:59:03.677Z,42.17
2019-04-04T09:01:53.029Z,52.87
2019-04-04T09:04:34.808Z,48.63
2019-04-04T09:07:22.217Z,42.33
2019-04-04T09:10:16.387Z,48.27
2019-04-04T09:13:13.302Z,43.40
2019-04-04T09:15:56.910Z,42.63
2019-04-04T09:18:45.345Z,44.70
2019-04-04T09:21:35.141Z,43.93
2019-04-04T09:27:38.081Z,41.80
2019-04-04T09:33:41.388Z,36.37
2019-04-04T09:36:21.914Z,45.77
2019-04-04T09:42:03.303Z,38.37
2019-04-04T09:48:02.146Z,60.90
2019-04-04T09:51:31.451Z,49.53
2019-04-04T09:54:11.421Z,44.43
2019-04-04T09:59:54.069Z,44.93
2019-04-04T10:09:37.308Z,45.53
2019-04-04T10:15:17.663Z,62.62
2019-04-04T10:18:14.976Z,54.27
2019-04-04T10:21:11.837Z,52.57
2019-04-04T10:30:10.602Z,52.07
2019-04-04T10:32:53.250Z,48.30
2019-04-04T10:36:00.106Z,51.03
2019-04-04T10:38:49.433Z,51.80
2019-04-04T10:41:39.569Z,47.73
2019-04-04T10:44:26.886Z,52.30
2019-04-04T10:47:14.192Z,52.33
2019-04-04T10:50:07.584Z,54.47
2019-04-04T10:52:48.856Z,78.70
2019-04-04T10:55:44.745Z,85.47
2019-04-04T10:58:19.102Z,78.30
2019-04-04T11:01:00.732Z,90.70
2019-04-04T11:06:46.691Z,56.77
2019-04-04T11:09:44.405Z,64.47
2019-04-04T11:12:34.162Z,58.27
2019-04-04T11:15:25.114Z,65.32
2019-04-04T11:18:23.530Z,57.65
2019-04-04T11:21:20.170Z,74.80
2019-04-04T11:24:19.078Z,92.73
2019-04-04T11:30:25.751Z,58.07
2019-04-04T11:33:27.048Z,56.27
2019-04-04T11:36:32.740Z,61.20
2019-04-04T11:42:11.664Z,82.20
2019-04-04T11:45:02.919Z,133.10
2019-04-04T11:47:49.979Z,108.60
2019-04-04T11:50:35.474Z,91.50
2019-04-04T11:53:28.877Z,65.30
2019-04-04T11:56:13.710Z,55.60
2019-04-04T11:59:08.289Z,60.23
2019-04-04T12:02:18.879Z,57.30
2019-04-04T12:05:06.216Z,57.40
2019-04-04T12:07:55.337Z,65.92
2019-04-04T12:10:55.267Z,63.33
2019-04-04T12:13:56.809Z,71.28
2019-04-04T12:19:59.748Z,581.77
2019-04-04T12:22:52.014Z,697.17
2019-04-04T12:26:13.292Z,479.33
2019-04-04T12:28:44.408Z,651.73
2019-04-04T12:31:36.543Z,382.23
2019-04-04T12:34:33.145Z,135.17
2019-04-04T12:37:15.193Z,103.27
2019-04-04T12:40:22.536Z,96.17
2019-04-04T12:43:19.466Z,96.40
2019-04-04T12:46:12.945Z,102.53
2019-04-04T12:48:59.561Z,81.03
2019-04-04T12:51:46.571Z,114.80
2019-04-04T12:54:45.977Z,105.70
2019-04-04T12:57:34.700Z,96.87
2019-04-04T13:00:35.111Z,85.07
2019-04-04T13:03:46.449Z,84.83
2019-04-04T13:06:59.033Z,98.87
2019-04-04T13:10:10.857Z,103.97
2019-04-04T13:13:18.562Z,100.83
2019-04-04T13:16:23.912Z,91.55
2019-04-04T13:19:12.507Z,146.43
2019-04-04T13:21:56.087Z,141.40
2019-04-04T13:24:56.051Z,108.07
2019-04-04T13:28:37.681Z,90.33
2019-04-04T13:35:33.045Z,86.43
2019-04-04T13:42:16.235Z,98.60
2019-04-04T13:45:11.913Z,108.27
2019-04-04T13:48:19.480Z,100.63
2019-04-04T13:51:21.094Z,99.87
2019-04-04T13:54:25.277Z,102.50
2019-04-04T14:00:52.108Z,189.20
2019-04-04T14:03:44.382Z,126.07
2019-04-04T14:06:51.829Z,117.67
2019-04-04T14:09:48.660Z,110.07
2019-04-04T14:12:50.371Z,122.13
2019-04-04T14:15:51.482Z,132.67
2019-04-04T14:19:07.932Z,138.12
2019-04-04T14:22:10.829Z,124.57
2019-04-04T14:25:06.458Z,129.97
2019-04-04T14:28:04.327Z,124.17
2019-04-04T14:31:10.041Z,133.43
2019-04-04T14:34:18.686Z,133.00
2019-04-04T14:37:48.858Z,146.97
2019-04-04T14:40:48.513Z,146.93
2019-04-04T14:43:53.453Z,147.62
2019-04-04T14:47:01.037Z,136.13
2019-04-04T14:50:23.933Z,151.50
2019-04-04T14:53:48.870Z,137.77
2019-04-04T14:56:57.159Z,146.37
2019-04-04T15:00:07.351Z,150.33
2019-04-04T15:03:17.103Z,145.90
2019-04-04T15:06:21.720Z,156.87
2019-04-04T15:09:26.580Z,158.20
2019-04-04T15:12:27.308Z,155.47
2019-04-04T15:15:40.754Z,170.63
2019-04-04T15:19:10.350Z,166.65
2019-04-04T15:25:28.297Z,184.72
2019-04-04T15:28:18.122Z,166.67
2019-04-04T15:31:13.897Z,161.03
2019-04-04T15:34:01.424Z,157.50
2019-04-04T15:37:10.501Z,169.90
2019-04-04T15:40:12.010Z,161.50
2019-04-04T15:42:57.745Z,163.80
2019-04-04T15:45:47.538Z,164.87
2019-04-04T15:48:41.880Z,163.00
2019-04-04T15:51:43.436Z,155.17
2019-04-04T15:54:33.309Z,162.90
2019-04-04T15:57:29.802Z,178.97
2019-04-04T16:00:30.956Z,328.23
2019-04-04T16:03:23.868Z,172.53
2019-04-04T16:06:26.022Z,180.30
2019-04-04T16:09:18.274Z,155.83
2019-04-04T16:12:37.449Z,176.57
2019-04-04T16:15:40.251Z,156.70
2019-04-04T16:18:21.683Z,145.37
2019-04-04T16:21:25.991Z,159.67
2019-04-04T16:24:23.985Z,151.60
2019-04-04T16:27:45.393Z,432.20
2019-04-04T16:30:34.778Z,213.03
2019-04-04T16:33:36.217Z,172.17
2019-04-04T16:36:44.450Z,157.07
2019-04-04T16:39:35.282Z,145.13
2019-04-04T16:42:33.116Z,157.03
2019-04-04T16:45:17.256Z,152.70
2019-04-04T16:48:04.348Z,149.90
2019-04-04T16:50:59.536Z,160.77
2019-04-04T16:57:20.071Z,144.63
2019-04-04T17:00:20.620Z,152.75
2019-04-04T17:03:08.259Z,131.33
2019-04-04T17:05:51.930Z,144.87
2019-04-04T17:08:38.796Z,139.20
2019-04-04T17:11:46.260Z,143.63
2019-04-04T17:14:41.779Z,136.23
2019-04-04T17:20:33.855Z,139.60
2019-04-04T17:23:19.787Z,137.33
2019-04-04T17:26:05.908Z,130.37
2019-04-04T17:28:51.786Z,136.70
2019-04-04T17:31:36.589Z,141.50
2019-04-04T17:34:17.206Z,152.80
2019-04-04T17:37:01.387Z,145.40
2019-04-04T17:39:44.284Z,158.25
2019-04-04T17:42:30.118Z,141.63
2019-04-04T17:45:06.999Z,148.80
2019-04-04T17:47:49.342Z,150.90
2019-04-04T17:50:30.105Z,144.87
2019-04-04T17:53:10.974Z,144.33
2019-04-04T17:55:55.427Z,141.37
2019-04-04T17:58:37.993Z,141.27
2019-04-04T18:01:19.809Z,144.93
2019-04-04T18:04:00.823Z,138.03
2019-04-04T18:06:48.796Z,131.53
2019-04-04T18:09:31.896Z,134.27
2019-04-04T18:12:10.831Z,145.47
2019-04-04T18:14:51.077Z,142.65
2019-04-04T18:17:36.516Z,141.47
2019-04-04T18:20:16.043Z,125.67
2019-04-04T18:23:10.874Z,126.77
2019-04-04T18:25:51.126Z,427.07
2019-04-04T18:28:32.099Z,251.60
2019-04-04T18:31:14.393Z,172.50
2019-04-04T18:33:54.040Z,148.30
2019-04-04T18:36:37.293Z,127.40
2019-04-04T18:39:19.601Z,135.50
2019-04-04T18:42:04.094Z,129.13
2019-04-04T18:44:46.425Z,135.03
2019-04-04T18:47:29.176Z,139.47
2019-04-04T18:50:10.266Z,150.57
2019-04-04T18:52:52.211Z,137.73
2019-04-04T18:55:34.314Z,129.23
2019-04-04T18:58:16.361Z,127.13
2019-04-04T19:00:59.155Z,136.47
2019-04-04T19:03:44.240Z,125.40
2019-04-04T19:06:25.292Z,140.43
2019-04-04T19:09:14.720Z,132.60
2019-04-04T19:11:52.244Z,136.90
2019-04-04T19:14:35.984Z,139.37
2019-04-04T19:17:17.446Z,131.47
2019-04-04T19:19:59.631Z,146.13
2019-04-04T19:22:42.514Z,129.80
2019-04-04T19:25:25.828Z,142.32
2019-04-04T19:28:09.483Z,138.13
2019-04-04T19:30:51.326Z,138.47
2019-04-04T19:33:45.059Z,133.23
2019-04-04T19:36:27.422Z,129.40
2019-04-04T19:39:12.909Z,127.43
2019-04-04T19:41:58.210Z,134.07
2019-04-04T19:44:39.590Z,138.20
2019-04-04T19:47:22.240Z,133.13
2019-04-04T19:50:03.358Z,139.13
2019-04-04T19:52:45.113Z,123.47
2019-04-04T19:55:27.278Z,129.45
2019-04-04T19:58:08.619Z,125.83
2019-04-04T20:00:53.751Z,121.40
2019-04-04T20:03:32.105Z,139.12
2019-04-04T20:06:11.658Z,131.07
2019-04-04T20:08:56.108Z,134.40
2019-04-04T20:11:38.740Z,129.10
2019-04-04T20:14:22.401Z,125.20
2019-04-04T20:17:03.378Z,120.57
2019-04-04T20:19:49.695Z,120.63
2019-04-04T20:22:30.313Z,123.40
2019-04-04T20:25:12.914Z,121.10
2019-04-04T20:27:56.229Z,120.47
2019-04-04T20:30:44.085Z,122.47
2019-04-04T20:33:24.128Z,127.65
2019-04-04T20:36:06.667Z,115.87
2019-04-04T20:38:50.633Z,122.78
2019-04-04T20:41:34.195Z,122.77
2019-04-04T20:44:14.219Z,123.60
2019-04-04T20:46:56.171Z,119.00
2019-04-04T20:49:40.239Z,126.40
2019-04-04T20:52:22.318Z,126.47
2019-04-04T20:55:04.214Z,123.13
2019-04-04T20:57:42.798Z,134.67
2019-04-04T21:00:25.104Z,129.50
2019-04-04T21:03:07.683Z,127.90
2019-04-04T21:05:48.926Z,149.37
2019-04-04T21:08:28.631Z,129.13
2019-04-04T21:11:09.731Z,139.73
2019-04-04T21:13:56.658Z,146.17
2019-04-04T21:16:39.486Z,139.72
2019-04-04T21:19:24.643Z,142.17
2019-04-04T21:22:07.573Z,119.23
2019-04-04T21:24:50.806Z,128.60
2019-04-04T21:27:33.570Z,148.60
2019-04-04T21:30:14.719Z,121.93
2019-04-04T21:32:57.062Z,132.93
2019-04-04T21:35:40.173Z,125.10
2019-04-04T21:38:23.459Z,135.10
2019-04-04T21:41:03.112Z,142.77
2019-04-04T21:43:46.329Z,140.33
2019-04-04T21:46:28.680Z,146.13
2019-04-04T21:49:07.416Z,141.70
2019-04-04T21:51:50.508Z,143.43
2019-04-04T21:54:34.700Z,133.93
2019-04-04T21:57:17.401Z,143.00
2019-04-04T22:00:03.783Z,128.37
2019-04-04T22:02:47.783Z,150.77
2019-04-04T22:05:26.935Z,135.07
2019-04-04T22:08:09.548Z,142.53
2019-04-04T22:10:52.297Z,142.77
2019-04-04T22:13:35.694Z,147.80
2019-04-04T22:16:18.572Z,137.47
2019-04-04T22:19:00.249Z,141.57
2019-04-04T22:21:42.256Z,144.57
2019-04-04T22:24:25.920Z,147.90
2019-04-04T22:27:09.676Z,151.40
2019-04-04T22:29:52.350Z,148.67
2019-04-04T22:32:37.955Z,148.17
2019-04-04T22:35:16.993Z,147.70
2019-04-04T22:37:58.060Z,143.83
2019-04-04T22:40:42.593Z,149.20
2019-04-04T22:43:25.155Z,145.63
2019-04-04T22:46:06.781Z,150.57
2019-04-04T22:48:50.193Z,163.70
2019-04-04T22:51:35.243Z,145.07
2019-04-04T22:54:20.337Z,151.17
2019-04-04T22:57:03.788Z,140.43
2019-04-04T22:59:46.882Z,139.90
2019-04-04T23:02:32.860Z,163.32
2019-04-04T23:05:15.194Z,148.10
2019-04-04T23:08:01.519Z,155.63
2019-04-04T23:10:42.572Z,139.80
2019-04-04T23:13:24.520Z,150.80
2019-04-04T23:16:11.130Z,166.60
2019-04-04T23:18:55.599Z,155.07
2019-04-04T23:21:39.448Z,142.27
2019-04-04T23:24:24.173Z,148.57
2019-04-04T23:27:04.167Z,155.93
2019-04-04T23:29:47.341Z,158.07
2019-04-04T23:32:28.551Z,145.07
2019-04-04T23:35:16.376Z,152.67
2019-04-04T23:37:56.844Z,154.47
2019-04-04T23:40:39.155Z,149.73
2019-04-04T23:43:23.584Z,146.25
2019-04-04T23:46:05.732Z,159.23
2019-04-04T23:48:48.562Z,150.67
2019-04-04T23:51:30.414Z,151.93
2019-04-04T23:54:12.210Z,154.57
2019-04-04T23:56:56.079Z,150.37
2019-04-04T23:59:40.525Z,142.53
